Time;durP1;ratioP1;P1;durP2;ratioP2;P2;SDS_P1;SDS_P2;PMS_P1;PMS_P2;Temp;Humidity;BMP_temperature;BMP_pressure;BME280_temperature;BME280_humidity;BME280_pressure;Samples;Min_cycle;Max_cycle;Signal;HPM_P1;HPM_P2
2021/06/06 00:01:21;;;;;;;1.97;1.70;;;17.60;98.00;;;;;;5071158;28;20539;-73
2021/06/06 00:03:50;;;;;;;1.50;1.40;;;17.70;98.00;;;;;;5072039;28;20452;-72
2021/06/06 00:06:20;;;;;;;4.50;1.97;;;17.50;98.00;;;;;;5068876;28;20859;-73
2021/06/06 00:08:48;;;;;;;1.80;1.70;;;17.40;98.00;;;;;;5072040;28;20460;-73
2021/06/06 00:11:21;;;;;;;1.27;1.23;;;17.30;98.00;;;;;;5069413;28;20453;-72
2021/06/06 00:13:48;;;;;;;2.47;1.77;;;17.20;98.00;;;;;;5072121;28;20489;-73
2021/06/06 00:16:18;;;;;;;2.97;2.07;;;17.20;98.00;;;;;;5069036;28;20486;-73
2021/06/06 00:18:45;;;;;;;1.93;1.10;;;17.20;98.00;;;;;;5071957;28;20464;-72
2021/06/06 00:21:11;;;;;;;1.77;1.60;;;17.20;98.00;;;;;;5069446;28;20547;-72
2021/06/06 00:23:39;;;;;;;1.80;1.53;;;17.30;98.00;;;;;;5071896;28;20518;-73
2021/06/06 00:26:10;;;;;;;1.93;1.40;;;17.20;98.00;;;;;;5069232;28;20457;-72
2021/06/06 00:28:38;;;;;;;1.33;1.10;;;17.10;98.00;;;;;;5071826;28;20453;-73
2021/06/06 00:31:08;;;;;;;2.87;1.80;;;17.10;98.00;;;;;;5069018;28;20456;-73
2021/06/06 00:33:35;;;;;;;1.60;1.30;;;17.00;98.00;;;;;;5071721;28;20520;-72
2021/06/06 00:36:03;;;;;;;1.47;1.20;;;17.00;98.00;;;;;;5068955;28;20492;-73
2021/06/06 00:38:29;;;;;;;1.33;1.27;;;17.10;98.00;;;;;;5072020;28;20514;-73
2021/06/06 00:40:57;;;;;;;4.23;1.50;;;17.00;98.00;;;;;;5069093;28;20457;-72
2021/06/06 00:43:24;;;;;;;1.20;1.17;;;17.10;98.00;;;;;;5071558;28;20452;-73
2021/06/06 00:45:53;;;;;;;1.20;1.10;;;17.20;98.00;;;;;;5069013;28;20461;-73
2021/06/06 00:48:19;;;;;;;1.33;1.30;;;17.30;98.00;;;;;;5071649;28;20449;-73
2021/06/06 00:50:48;;;;;;;1.57;1.50;;;17.30;98.00;;;;;;5068746;28;20919;-72
2021/06/06 00:53:20;;;;;;;4.30;2.00;;;17.40;98.00;;;;;;5070723;28;20516;-73
2021/06/06 00:55:50;;;;;;;1.20;1.10;;;17.50;98.00;;;;;;5068381;28;20461;-72
2021/06/06 00:58:18;;;;;;;3.40;1.60;;;17.50;98.00;;;;;;5071029;28;20452;-72
2021/06/06 01:00:48;;;;;;;1.40;1.30;;;17.30;98.00;;;;;;5068802;28;20496;-72
2021/06/06 01:03:17;;;;;;;1.50;1.30;;;17.20;98.00;;;;;;5071486;28;20904;-72
2021/06/06 01:05:50;;;;;;;1.30;1.23;;;17.20;98.00;;;;;;5069149;28;20973;-72
2021/06/06 01:08:23;;;;;;;2.67;1.70;;;17.20;98.00;;;;;;5070975;28;20524;-72
2021/06/06 01:10:56;;;;;;;2.93;1.80;;;17.20;98.00;;;;;;5068842;28;20464;-72
2021/06/06 01:13:28;;;;;;;3.00;1.60;;;17.20;98.00;;;;;;5071276;28;20566;-72
2021/06/06 01:16:03;;;;;;;1.90;1.33;;;17.10;98.00;;;;;;5068640;28;21028;-72
2021/06/06 01:18:35;;;;;;;1.70;1.30;;;17.10;98.00;;;;;;5071223;28;20452;-72
2021/06/06 01:21:11;;;;;;;2.17;1.83;;;17.10;98.00;;;;;;5068174;28;20514;-72
2021/06/06 01:24:05;;;;;;;1.60;1.27;;;17.10;98.00;;;;;;5069834;28;20460;-73
2021/06/06 01:26:35;;;;;;;1.93;1.50;;;17.20;98.00;;;;;;5068434;28;20514;-73
2021/06/06 01:29:09;;;;;;;2.63;2.00;;;17.20;98.00;;;;;;5069413;28;20536;-73
2021/06/06 01:31:39;;;;;;;1.53;1.47;;;17.40;98.00;;;;;;5071453;28;20460;-73
2021/06/06 01:34:09;;;;;;;1.70;1.63;;;17.40;98.00;;;;;;5068678;28;20850;-73
2021/06/06 01:36:42;;;;;;;1.30;1.30;;;17.30;98.00;;;;;;5071280;28;20553;-73
2021/06/06 01:39:14;;;;;;;1.20;1.10;;;17.30;98.00;;;;;;5067868;28;20456;-73
2021/06/06 01:41:47;;;;;;;2.30;1.40;;;17.30;98.00;;;;;;5071215;28;20449;-73
2021/06/06 01:44:17;;;;;;;1.40;1.30;;;17.40;98.00;;;;;;5068599;28;20449;-73
2021/06/06 01:46:48;;;;;;;2.73;1.70;;;17.40;98.00;;;;;;5071100;28;20484;-72
2021/06/06 01:49:17;;;;;;;3.50;1.50;;;17.30;98.00;;;;;;5068172;28;20472;-72
2021/06/06 01:51:47;;;;;;;1.40;1.17;;;17.40;98.00;;;;;;5070981;28;20463;-72
2021/06/06 01:54:18;;;;;;;1.30;1.23;;;17.50;98.00;;;;;;5068300;28;20944;-73
2021/06/06 01:56:49;;;;;;;2.17;1.40;;;17.40;98.00;;;;;;5070891;28;20947;-74
2021/06/06 01:59:21;;;;;;;1.93;1.20;;;17.50;98.00;;;;;;5066952;28;20467;-73
2021/06/06 02:01:47;;;;;;;1.20;1.10;;;17.40;98.00;;;;;;5070913;28;20452;-73
2021/06/06 02:04:14;;;;;;;1.57;1.43;;;17.40;98.00;;;;;;5066232;28;20484;-74
2021/06/06 02:06:45;;;;;;;1.30;1.30;;;17.50;98.00;;;;;;5073867;28;20459;-74
2021/06/06 02:09:18;;;;;;;1.30;1.20;;;17.40;98.00;;;;;;5072062;28;20976;-73
2021/06/06 02:11:48;;;;;;;2.30;1.43;;;17.40;98.00;;;;;;5074221;28;20456;-74
2021/06/06 02:14:19;;;;;;;1.20;1.17;;;17.30;98.00;;;;;;5071492;28;20857;-73
2021/06/06 02:16:48;;;;;;;2.07;1.30;;;17.40;98.00;;;;;;5074150;28;20457;-74
2021/06/06 02:19:14;;;;;;;1.57;1.47;;;17.50;98.00;;;;;;5071975;28;20473;-73
2021/06/06 02:21:42;;;;;;;1.40;1.37;;;17.40;98.00;;;;;;5074286;28;20496;-73
2021/06/06 02:24:09;;;;;;;2.40;1.60;;;17.30;98.00;;;;;;5071771;28;20966;-75
2021/06/06 02:26:44;;;;;;;2.07;1.50;;;17.20;98.00;;;;;;5074340;28;20530;-74
2021/06/06 02:29:18;;;;;;;1.50;1.27;;;17.20;98.00;;;;;;5071950;28;20452;-73
2021/06/06 02:31:51;;;;;;;2.53;1.30;;;17.40;98.00;;;;;;5074211;28;20924;-73
2021/06/06 02:34:23;;;;;;;1.23;1.23;;;17.40;98.00;;;;;;5071774;28;21006;-73
2021/06/06 02:36:54;;;;;;;1.33;1.23;;;17.40;98.00;;;;;;5074014;28;20496;-73
2021/06/06 02:39:25;;;;;;;1.40;1.37;;;17.30;98.00;;;;;;5071408;28;20550;-73
2021/06/06 02:41:58;;;;;;;1.37;1.20;;;17.30;98.00;;;;;;5073996;28;20464;-73
2021/06/06 02:44:29;;;;;;;4.60;1.40;;;17.30;98.00;;;;;;5071757;28;20482;-73
2021/06/06 02:46:59;;;;;;;1.20;1.13;;;17.30;98.00;;;;;;5073675;28;20464;-73
2021/06/06 02:49:31;;;;;;;1.40;1.27;;;17.30;98.00;;;;;;5071060;28;20551;-73
2021/06/06 02:52:01;;;;;;;1.30;1.30;;;17.40;98.00;;;;;;5073527;28;20822;-73
2021/06/06 02:54:33;;;;;;;1.90;1.23;;;17.40;98.00;;;;;;5070012;28;20541;-73
2021/06/06 02:57:07;;;;;;;1.20;1.03;;;17.50;98.00;;;;;;5073546;28;20531;-73
2021/06/06 02:59:36;;;;;;;1.33;1.23;;;17.40;98.00;;;;;;5070688;28;20460;-72
2021/06/06 03:02:07;;;;;;;1.73;1.23;;;17.30;98.00;;;;;;5073309;28;20449;-73
2021/06/06 03:04:37;;;;;;;1.30;1.17;;;17.30;98.00;;;;;;5071165;28;20457;-72
2021/06/06 03:07:08;;;;;;;1.70;1.70;;;17.10;98.00;;;;;;5073380;28;20822;-73
2021/06/06 03:09:35;;;;;;;1.20;1.00;;;17.10;98.00;;;;;;5069569;28;20453;-73
2021/06/06 03:12:08;;;;;;;1.20;1.10;;;17.10;98.00;;;;;;5073358;28;20464;-72
2021/06/06 03:14:39;;;;;;;2.13;1.80;;;17.10;98.00;;;;;;5070914;28;20871;-74
2021/06/06 03:17:09;;;;;;;1.63;1.50;;;17.00;98.00;;;;;;5072359;28;20456;-73
2021/06/06 03:19:41;;;;;;;1.37;1.17;;;16.90;98.00;;;;;;5070569;28;20453;-73
2021/06/06 03:22:13;;;;;;;1.43;1.20;;;16.90;98.00;;;;;;5073155;28;20871;-72
2021/06/06 03:24:42;;;;;;;2.53;1.30;;;16.70;98.00;;;;;;5070700;28;20457;-73
2021/06/06 03:27:13;;;;;;;2.13;1.67;;;16.60;98.00;;;;;;5073065;28;20457;-73
2021/06/06 03:29:53;;;;;;;1.20;1.07;;;16.60;98.00;;;;;;5070498;28;20457;-73
2021/06/06 03:32:24;;;;;;;1.90;1.20;;;16.50;98.00;;;;;;5071598;28;20483;-74
2021/06/06 03:34:51;;;;;;;2.10;1.33;;;16.40;98.00;;;;;;5069793;28;20857;-73
2021/06/06 03:37:18;;;;;;;1.10;1.00;;;16.50;98.00;;;;;;5072266;28;20456;-73
2021/06/06 03:39:44;;;;;;;1.20;1.10;;;16.50;98.00;;;;;;5069912;28;20465;-73
2021/06/06 03:42:13;;;;;;;1.20;1.10;;;16.60;98.00;;;;;;5073055;28;21125;-73
2021/06/06 03:44:40;;;;;;;1.70;1.20;;;16.70;98.00;;;;;;5068693;28;20461;-72
2021/06/06 03:47:07;;;;;;;2.00;1.43;;;16.60;98.00;;;;;;5072634;28;20472;-72
2021/06/06 03:49:34;;;;;;;1.73;1.10;;;16.60;98.00;;;;;;5070150;28;20799;-73
2021/06/06 03:52:01;;;;;;;1.10;1.10;;;16.60;98.00;;;;;;5072312;28;20499;-72
2021/06/06 03:54:27;;;;;;;1.20;1.20;;;16.60;98.00;;;;;;5069852;28;20460;-73
2021/06/06 03:56:55;;;;;;;2.00;1.80;;;16.50;98.00;;;;;;5072440;28;20518;-73
2021/06/06 03:59:24;;;;;;;1.10;1.10;;;16.50;98.00;;;;;;5069909;28;20509;-74
2021/06/06 04:01:51;;;;;;;1.40;1.30;;;16.40;98.00;;;;;;5072359;28;20460;-73
2021/06/06 04:04:19;;;;;;;1.30;1.20;;;16.30;98.00;;;;;;5070530;28;20478;-75
2021/06/06 04:06:46;;;;;;;2.20;1.53;;;16.20;98.00;;;;;;5072374;28;20452;-73
2021/06/06 04:09:13;;;;;;;2.60;1.50;;;16.20;98.00;;;;;;5071034;28;20448;-72
2021/06/06 04:11:40;;;;;;;1.20;1.10;;;16.20;98.00;;;;;;5069099;28;20545;-73
2021/06/06 04:14:08;;;;;;;1.20;1.07;;;16.10;98.00;;;;;;5072244;28;20481;-72
2021/06/06 04:16:37;;;;;;;1.10;1.00;;;16.10;98.00;;;;;;5069394;28;21142;-73
2021/06/06 04:19:04;;;;;;;1.10;1.10;;;16.00;98.00;;;;;;5072097;28;20455;-73
2021/06/06 04:21:32;;;;;;;1.37;1.10;;;16.00;98.00;;;;;;5069337;28;20464;-72
2021/06/06 04:23:59;;;;;;;1.17;1.07;;;15.90;98.00;;;;;;5071887;28;20455;-72
2021/06/06 04:26:27;;;;;;;1.20;1.17;;;15.80;98.00;;;;;;5068211;28;20471;-73
2021/06/06 04:28:53;;;;;;;1.50;1.13;;;15.70;98.00;;;;;;5071212;28;20496;-73
2021/06/06 04:31:21;;;;;;;1.40;1.07;;;15.70;98.00;;;;;;5069031;28;20501;-72
2021/06/06 04:33:49;;;;;;;1.63;1.53;;;15.70;98.00;;;;;;5071682;28;20485;-73
2021/06/06 04:36:16;;;;;;;1.10;1.07;;;15.70;98.00;;;;;;5068116;28;20461;-72
2021/06/06 04:38:43;;;;;;;1.17;1.13;;;15.70;98.00;;;;;;5071613;28;20468;-73
2021/06/06 04:41:12;;;;;;;1.10;1.07;;;15.80;98.00;;;;;;5068975;28;20464;-73
2021/06/06 04:43:39;;;;;;;1.10;1.00;;;15.80;98.00;;;;;;5071445;28;20853;-73
2021/06/06 04:46:07;;;;;;;1.30;1.13;;;15.70;98.00;;;;;;5068981;28;20495;-72
2021/06/06 04:48:37;;;;;;;2.37;1.30;;;15.80;98.00;;;;;;5071555;28;20488;-72
2021/06/06 04:51:07;;;;;;;4.03;1.50;;;15.80;98.00;;;;;;5068741;28;20524;-73
2021/06/06 04:53:34;;;;;;;1.27;1.10;;;15.80;98.00;;;;;;5071509;28;20488;-72
2021/06/06 04:56:01;;;;;;;1.10;1.00;;;15.90;98.00;;;;;;5068965;28;20467;-72
2021/06/06 04:58:29;;;;;;;1.10;1.03;;;16.00;98.00;;;;;;5071648;28;20463;-74
2021/06/06 05:00:56;;;;;;;1.60;1.50;;;16.10;98.00;;;;;;5068608;28;20993;-72
2021/06/06 05:03:22;;;;;;;1.67;1.53;;;16.10;98.00;;;;;;5071613;28;20458;-72
2021/06/06 05:05:49;;;;;;;1.70;1.40;;;16.00;98.00;;;;;;5068925;28;20455;-73
2021/06/06 05:08:22;;;;;;;1.27;1.23;;;16.00;98.00;;;;;;5071417;28;20494;-73
2021/06/06 05:10:49;;;;;;;1.10;1.10;;;16.00;98.00;;;;;;5068818;28;20472;-73
2021/06/06 05:13:16;;;;;;;1.10;1.00;;;16.00;98.00;;;;;;5071219;28;20570;-73
2021/06/06 05:15:43;;;;;;;1.17;1.17;;;15.90;98.00;;;;;;5068864;28;20456;-73
2021/06/06 05:18:11;;;;;;;1.30;1.27;;;16.00;98.00;;;;;;5071220;28;20516;-73
2021/06/06 05:20:39;;;;;;;1.10;1.00;;;16.00;98.00;;;;;;5068973;28;20475;-73
2021/06/06 05:23:06;;;;;;;1.77;1.40;;;15.90;98.00;;;;;;5071030;28;20478;-73
2021/06/06 05:25:36;;;;;;;1.30;1.20;;;16.00;98.00;;;;;;5068570;28;20588;-73
2021/06/06 05:28:04;;;;;;;1.40;1.20;;;16.20;98.00;;;;;;5070936;28;20959;-73
2021/06/06 05:30:32;;;;;;;1.53;1.10;;;16.00;98.00;;;;;;5068565;28;20795;-73
2021/06/06 05:33:00;;;;;;;1.20;1.10;;;16.00;98.00;;;;;;5070996;28;20480;-72
2021/06/06 05:35:28;;;;;;;1.83;1.27;;;16.10;98.00;;;;;;5068239;28;20457;-72
2021/06/06 05:37:55;;;;;;;1.10;1.00;;;16.10;98.00;;;;;;5071101;28;20457;-73
2021/06/06 05:40:22;;;;;;;1.30;1.23;;;16.10;98.00;;;;;;5069634;28;20448;-72
2021/06/06 05:42:50;;;;;;;1.20;1.13;;;16.00;98.00;;;;;;5074926;28;20452;-73
2021/06/06 05:45:19;;;;;;;1.20;1.20;;;16.00;98.00;;;;;;5071867;28;20843;-74
2021/06/06 05:47:46;;;;;;;1.77;1.27;;;16.00;98.00;;;;;;5075165;28;20478;-72
2021/06/06 05:50:15;;;;;;;1.10;1.10;;;16.10;98.00;;;;;;5072784;28;20943;-73
2021/06/06 05:52:41;;;;;;;1.50;1.50;;;16.00;98.00;;;;;;5075028;28;21004;-72
2021/06/06 05:55:10;;;;;;;1.10;1.00;;;15.90;98.00;;;;;;5071858;28;20471;-72
2021/06/06 05:57:36;;;;;;;1.10;1.00;;;15.90;98.00;;;;;;5074740;28;20460;-72
2021/06/06 06:00:05;;;;;;;1.60;1.20;;;15.90;98.00;;;;;;5071876;28;20502;-73
2021/06/06 06:02:32;;;;;;;1.10;1.10;;;15.90;98.00;;;;;;5074638;28;20452;-72
2021/06/06 06:04:58;;;;;;;1.90;1.10;;;15.70;98.00;;;;;;5072033;28;20776;-71
2021/06/06 06:07:25;;;;;;;1.20;1.13;;;15.70;98.00;;;;;;5074662;28;20467;-72
2021/06/06 06:09:51;;;;;;;1.57;1.30;;;15.60;98.00;;;;;;5071834;28;20581;-72
2021/06/06 06:12:18;;;;;;;1.30;1.30;;;15.70;98.00;;;;;;5074312;28;20942;-72
2021/06/06 06:14:44;;;;;;;1.20;1.10;;;15.80;98.00;;;;;;5071029;28;20498;-72
2021/06/06 06:17:12;;;;;;;1.10;1.00;;;15.70;98.00;;;;;;5074163;28;20533;-72
2021/06/06 06:19:38;;;;;;;1.37;1.37;;;15.80;98.00;;;;;;5071435;28;20483;-72
2021/06/06 06:22:05;;;;;;;1.30;1.20;;;15.80;98.00;;;;;;5074186;28;20467;-73
2021/06/06 06:24:32;;;;;;;1.20;1.10;;;15.70;98.00;;;;;;5072555;28;20495;-72
2021/06/06 06:26:58;;;;;;;1.10;1.10;;;15.60;98.00;;;;;;5074113;28;20504;-72
2021/06/06 06:29:25;;;;;;;1.40;1.30;;;15.60;98.00;;;;;;5074104;28;20488;-72
2021/06/06 06:31:52;;;;;;;1.80;1.37;;;15.60;98.00;;;;;;5071051;28;20824;-71
2021/06/06 06:34:21;;;;;;;1.37;1.30;;;15.60;98.00;;;;;;5073808;28;20804;-72
2021/06/06 06:36:47;;;;;;;1.10;1.00;;;15.70;98.00;;;;;;5071952;28;20452;-71
2021/06/06 06:39:15;;;;;;;1.40;1.40;;;15.90;98.00;;;;;;5073770;28;21012;-73
2021/06/06 06:41:42;;;;;;;1.20;1.10;;;15.80;98.00;;;;;;5071432;28;20529;-71
2021/06/06 06:44:08;;;;;;;1.10;0.90;;;16.00;98.00;;;;;;5073972;28;20498;-72
2021/06/06 06:46:35;;;;;;;1.10;1.07;;;16.00;98.00;;;;;;5071589;28;20464;-72
2021/06/06 06:49:02;;;;;;;1.10;1.00;;;16.10;98.00;;;;;;5073933;28;20509;-71
2021/06/06 06:51:30;;;;;;;3.53;1.53;;;16.00;98.00;;;;;;5070908;28;20463;-72
2021/06/06 06:53:57;;;;;;;1.60;1.30;;;16.00;98.00;;;;;;5073637;28;20498;-73
2021/06/06 06:56:25;;;;;;;1.70;1.60;;;16.00;98.00;;;;;;5071245;28;20567;-72
2021/06/06 06:58:53;;;;;;;1.10;1.03;;;15.90;98.00;;;;;;5072472;28;20834;-71
2021/06/06 07:01:21;;;;;;;1.40;1.27;;;15.80;98.00;;;;;;5070720;28;20452;-72
2021/06/06 07:03:47;;;;;;;1.60;1.23;;;15.80;98.00;;;;;;5073470;28;20459;-72
2021/06/06 07:06:15;;;;;;;1.37;1.10;;;15.70;98.00;;;;;;5071030;28;20822;-72
2021/06/06 07:08:44;;;;;;;1.10;1.10;;;15.70;98.00;;;;;;5073329;28;20530;-71
2021/06/06 07:11:13;;;;;;;1.30;1.10;;;15.70;98.00;;;;;;5070494;28;20785;-72
2021/06/06 07:13:41;;;;;;;1.20;1.10;;;15.70;98.00;;;;;;5071866;28;20832;-72
2021/06/06 07:16:11;;;;;;;1.10;1.00;;;15.80;98.00;;;;;;5070743;28;20459;-73
2021/06/06 07:18:39;;;;;;;1.10;1.00;;;15.80;98.00;;;;;;5073215;28;20483;-71
2021/06/06 07:21:08;;;;;;;1.10;1.00;;;15.90;98.00;;;;;;5070288;28;20455;-73
2021/06/06 07:23:35;;;;;;;1.10;0.93;;;15.90;98.00;;;;;;5072981;28;20961;-72
2021/06/06 07:26:09;;;;;;;2.03;1.37;;;16.00;98.00;;;;;;5070454;28;20866;-73
2021/06/06 07:28:35;;;;;;;1.20;1.00;;;16.00;98.00;;;;;;5072924;28;20491;-73
2021/06/06 07:31:04;;;;;;;1.10;0.93;;;16.00;98.00;;;;;;5070577;28;20472;-73
2021/06/06 07:33:34;;;;;;;1.30;1.20;;;16.00;98.00;;;;;;5073212;28;20484;-72
2021/06/06 07:36:02;;;;;;;1.50;1.30;;;15.90;98.00;;;;;;5070747;28;20455;-71
2021/06/06 07:38:28;;;;;;;1.50;1.20;;;15.80;98.00;;;;;;5073080;28;20493;-71
2021/06/06 07:40:56;;;;;;;1.47;1.13;;;15.70;98.00;;;;;;5070623;28;20477;-72
2021/06/06 07:43:24;;;;;;;1.97;1.50;;;15.70;98.00;;;;;;5072933;28;20790;-73
2021/06/06 07:45:51;;;;;;;1.30;1.30;;;15.80;98.00;;;;;;5069740;28;20487;-71
2021/06/06 07:48:18;;;;;;;1.40;1.20;;;15.90;98.00;;;;;;5072033;28;20451;-72
2021/06/06 07:50:47;;;;;;;1.20;1.00;;;15.90;98.00;;;;;;5067960;28;20490;-72
2021/06/06 07:53:14;;;;;;;1.13;1.10;;;16.00;98.00;;;;;;5071081;28;20519;-72
2021/06/06 07:55:41;;;;;;;1.10;1.00;;;15.90;98.00;;;;;;5068850;28;20525;-75
2021/06/06 07:58:07;;;;;;;1.10;1.10;;;16.00;98.00;;;;;;5071838;28;20460;-73
2021/06/06 08:00:38;;;;;;;1.17;1.10;;;16.00;98.00;;;;;;5069749;28;20490;-73
2021/06/06 08:03:06;;;;;;;1.57;1.47;;;16.00;98.00;;;;;;5070971;28;20449;-73
2021/06/06 08:05:34;;;;;;;1.43;1.10;;;16.00;98.00;;;;;;5068677;28;20492;-67
2021/06/06 08:08:01;;;;;;;1.10;1.03;;;16.00;98.00;;;;;;5071695;28;20492;-73
2021/06/06 08:10:29;;;;;;;1.20;1.00;;;15.90;98.00;;;;;;5069498;28;20491;-71
2021/06/06 08:12:59;;;;;;;1.10;1.00;;;15.90;98.00;;;;;;5071125;28;20499;-72
2021/06/06 08:15:27;;;;;;;1.17;1.13;;;15.90;98.00;;;;;;5068220;28;20519;-74
2021/06/06 08:18:07;;;;;;;1.10;1.00;;;15.90;98.00;;;;;;5071537;28;20452;-72
2021/06/06 08:20:37;;;;;;;1.10;1.03;;;15.80;98.00;;;;;;5069383;28;20861;-70
2021/06/06 08:23:05;;;;;;;2.23;1.53;;;15.90;98.00;;;;;;5071196;28;20989;-72
2021/06/06 08:25:31;;;;;;;1.40;1.10;;;15.90;98.00;;;;;;5068247;28;20462;-74
2021/06/06 08:28:03;;;;;;;1.20;1.17;;;15.90;98.00;;;;;;5071552;28;20461;-72
2021/06/06 08:30:33;;;;;;;1.23;1.17;;;16.00;98.00;;;;;;5068964;28;20460;-71
2021/06/06 08:33:02;;;;;;;1.10;1.10;;;15.90;98.00;;;;;;5070912;28;20480;-71
2021/06/06 08:35:29;;;;;;;1.10;1.10;;;15.90;98.00;;;;;;5068615;28;20457;-72
2021/06/06 08:37:56;;;;;;;1.23;1.17;;;16.00;98.00;;;;;;5071430;28;20499;-68
2021/06/06 08:40:30;;;;;;;1.27;1.23;;;16.20;98.00;;;;;;5066859;28;20460;-72
2021/06/06 08:42:58;;;;;;;2.00;1.13;;;16.50;98.00;;;;;;5071077;28;20456;-72
2021/06/06 08:45:32;;;;;;;1.10;1.00;;;16.60;98.00;;;;;;5068620;28;20461;-74
2021/06/06 08:48:03;;;;;;;1.10;0.90;;;16.60;98.00;;;;;;5071182;28;20456;-71
2021/06/06 08:50:37;;;;;;;1.30;1.20;;;16.40;98.00;;;;;;5068483;28;20826;-73
2021/06/06 08:53:17;;;;;;;2.13;1.70;;;16.20;98.00;;;;;;5071021;28;20905;-73
2021/06/06 08:56:17;;;;;;;1.37;1.33;;;16.20;98.00;;;;;;5068918;28;20467;-74
2021/06/06 08:58:48;;;;;;;1.20;1.10;;;16.20;98.00;;;;;;5070696;28;21020;-73
2021/06/06 09:01:25;;;;;;;1.57;1.30;;;16.20;98.00;;;;;;5067891;28;20458;-72
2021/06/06 09:03:56;;;;;;;1.10;1.10;;;16.30;98.00;;;;;;5071078;28;20460;-72
2021/06/06 09:06:42;;;;;;;1.40;1.30;;;16.20;98.00;;;;;;5068423;28;20464;-71
2021/06/06 09:09:11;;;;;;;1.10;1.10;;;16.30;98.00;;;;;;5070704;28;20490;-69
2021/06/06 09:11:38;;;;;;;1.10;1.10;;;16.50;98.00;;;;;;5067935;28;20456;-71
2021/06/06 09:14:04;;;;;;;1.57;1.47;;;16.60;98.00;;;;;;5070702;28;20519;-72
2021/06/06 09:16:35;;;;;;;1.93;1.60;;;16.60;98.00;;;;;;5071230;28;20577;-74
2021/06/06 09:19:10;;;;;;;1.33;1.27;;;16.50;98.00;;;;;;5074590;28;21105;-67
2021/06/06 09:21:49;;;;;;;1.10;1.10;;;16.40;98.00;;;;;;5072002;28;20527;-73
2021/06/06 09:24:21;;;;;;;2.10;1.97;;;16.40;98.00;;;;;;5074846;28;20579;-72
2021/06/06 09:26:48;;;;;;;1.17;1.13;;;16.50;98.00;;;;;;5072814;28;20460;-72
2021/06/06 09:29:21;;;;;;;1.10;1.07;;;16.50;98.00;;;;;;5074733;28;20850;-71
2021/06/06 09:31:49;;;;;;;1.40;1.17;;;16.50;98.00;;;;;;5071261;28;20463;-71
2021/06/06 09:34:21;;;;;;;1.17;1.10;;;16.40;98.00;;;;;;5074234;28;20877;-73
2021/06/06 09:37:04;;;;;;;1.10;1.10;;;16.60;98.00;;;;;;5071804;28;20453;-73
2021/06/06 09:39:37;;;;;;;1.70;1.60;;;16.60;98.00;;;;;;5073966;28;20448;-73
2021/06/06 09:42:19;;;;;;;1.77;1.40;;;16.50;98.00;;;;;;5071755;28;20512;-72
2021/06/06 09:44:45;;;;;;;1.23;1.20;;;16.30;98.00;;;;;;5074630;28;20461;-74
2021/06/06 09:47:15;;;;;;;1.10;1.00;;;16.30;98.00;;;;;;5071242;28;20447;-73
2021/06/06 09:49:44;;;;;;;1.30;1.20;;;16.20;98.00;;;;;;5074099;28;20468;-71
2021/06/06 09:52:15;;;;;;;1.37;1.33;;;16.20;98.00;;;;;;5071187;28;20487;-73
2021/06/06 09:54:45;;;;;;;1.13;1.10;;;16.20;98.00;;;;;;5074053;28;20494;-72
2021/06/06 09:57:30;;;;;;;1.60;1.50;;;16.20;98.00;;;;;;5071033;28;20509;-73
2021/06/06 10:00:07;;;;;;;1.13;1.10;;;16.10;98.00;;;;;;5071606;28;20523;-71
2021/06/06 10:02:38;;;;;;;1.73;1.43;;;16.10;98.00;;;;;;5074344;28;20918;-71
2021/06/06 10:05:11;;;;;;;3.27;1.80;;;16.20;98.00;;;;;;5071460;28;20467;-72
2021/06/06 10:07:43;;;;;;;1.77;1.63;;;16.10;98.00;;;;;;5074064;28;20452;-73
2021/06/06 10:10:32;;;;;;;1.93;1.30;;;16.10;98.00;;;;;;5071655;28;20495;-73
2021/06/06 10:13:07;;;;;;;2.13;1.63;;;16.30;98.00;;;;;;5073844;28;20509;-72
2021/06/06 10:15:46;;;;;;;4.37;2.00;;;16.40;98.00;;;;;;5069865;28;20471;-72
2021/06/06 10:18:22;;;;;;;1.10;1.10;;;16.30;98.00;;;;;;5074024;28;20546;-73
2021/06/06 10:20:55;;;;;;;1.30;1.20;;;16.30;98.00;;;;;;5071081;28;20451;-71
2021/06/06 10:23:26;;;;;;;1.83;1.70;;;16.40;98.00;;;;;;5073296;28;20784;-73
2021/06/06 10:25:57;;;;;;;1.40;1.30;;;16.40;98.00;;;;;;5070758;28;20464;-75
2021/06/06 10:28:29;;;;;;;1.80;1.70;;;16.40;98.00;;;;;;5073864;28;20459;-73
2021/06/06 10:31:01;;;;;;;1.10;1.00;;;16.40;98.00;;;;;;5071151;28;20461;-72
2021/06/06 10:33:32;;;;;;;1.30;1.20;;;16.40;98.00;;;;;;5073721;28;20485;-72
2021/06/06 10:36:01;;;;;;;1.93;1.83;;;16.50;98.00;;;;;;5071533;28;20466;-74
2021/06/06 10:38:28;;;;;;;2.50;1.70;;;16.50;98.00;;;;;;5073635;28;20474;-73
2021/06/06 10:40:58;;;;;;;1.40;1.40;;;16.50;98.00;;;;;;5070793;28;20460;-73
2021/06/06 10:43:33;;;;;;;1.60;1.40;;;16.60;98.00;;;;;;5073507;28;20528;-72
2021/06/06 10:46:10;;;;;;;1.30;1.20;;;16.60;98.00;;;;;;5070774;28;20551;-73
2021/06/06 10:48:46;;;;;;;2.20;1.77;;;16.50;98.00;;;;;;5073710;28;20545;-72
2021/06/06 10:51:25;;;;;;;1.40;1.30;;;16.60;98.00;;;;;;5069226;28;20463;-72
2021/06/06 10:53:56;;;;;;;1.57;1.47;;;16.50;98.00;;;;;;5073488;28;20484;-71
2021/06/06 10:56:42;;;;;;;1.63;1.43;;;16.60;98.00;;;;;;5070521;28;20464;-73
2021/06/06 10:59:10;;;;;;;1.00;0.97;;;16.60;98.00;;;;;;5073232;28;20467;-74
2021/06/06 11:01:57;;;;;;;1.10;1.10;;;16.80;98.00;;;;;;5070452;28;20456;-72
2021/06/06 11:04:27;;;;;;;1.50;1.40;;;16.70;98.00;;;;;;5066814;28;20800;-75
2021/06/06 11:07:40;;;;;;;1.30;1.20;;;16.70;98.00;;;;;;5070504;28;20445;-73
2021/06/06 11:10:33;;;;;;;2.37;1.93;;;16.70;98.00;;;;;;5068684;28;20823;-72
2021/06/06 11:13:12;;;;;;;1.60;1.50;;;16.70;98.00;;;;;;5072847;28;20460;-74
2021/06/06 11:15:41;;;;;;;1.47;1.37;;;16.70;98.00;;;;;;5070223;28;20906;-74
2021/06/06 11:18:10;;;;;;;1.13;1.07;;;16.70;98.00;;;;;;5073019;28;20467;-72
2021/06/06 11:20:50;;;;;;;3.97;1.90;;;16.70;98.00;;;;;;5069844;28;20471;-73
2021/06/06 11:23:22;;;;;;;1.53;1.27;;;16.80;98.00;;;;;;5072850;28;20479;-73
2021/06/06 11:25:49;;;;;;;1.40;1.33;;;16.80;98.00;;;;;;5070502;28;20471;-71
2021/06/06 11:28:31;;;;;;;1.40;1.30;;;16.80;98.00;;;;;;5072934;28;20525;-73
2021/06/06 11:30:58;;;;;;;1.40;1.37;;;16.90;98.00;;;;;;5069667;28;20454;-72
2021/06/06 11:33:35;;;;;;;1.50;1.20;;;16.90;98.00;;;;;;5072993;28;20519;-70
2021/06/06 11:36:05;;;;;;;2.27;1.43;;;16.80;98.00;;;;;;5069598;28;20879;-69
2021/06/06 11:38:42;;;;;;;1.60;1.50;;;16.70;98.00;;;;;;5071763;28;20464;-70
2021/06/06 11:41:31;;;;;;;1.10;1.00;;;16.70;98.00;;;;;;5069826;28;20534;-71
2021/06/06 11:44:08;;;;;;;3.57;1.73;;;16.80;98.00;;;;;;5072530;28;20551;-75
2021/06/06 11:46:40;;;;;;;1.90;1.70;;;16.90;98.00;;;;;;5069948;28;20465;-73
2021/06/06 11:49:24;;;;;;;1.20;1.13;;;16.80;98.00;;;;;;5072104;28;20478;-70
2021/06/06 11:51:54;;;;;;;1.73;1.40;;;16.80;98.00;;;;;;5069546;28;20488;-74
2021/06/06 11:54:27;;;;;;;1.63;1.53;;;16.80;98.00;;;;;;5072025;28;20545;-75
2021/06/06 11:56:56;;;;;;;2.97;1.47;;;16.80;98.00;;;;;;5069735;28;20464;-71
2021/06/06 11:59:29;;;;;;;1.33;1.27;;;16.90;98.00;;;;;;5071501;28;20477;-71
2021/06/06 12:01:59;;;;;;;1.93;1.83;;;17.00;98.00;;;;;;5069980;28;20460;-70
2021/06/06 12:04:29;;;;;;;1.77;1.73;;;17.00;98.00;;;;;;5071943;28;20509;-72
2021/06/06 12:06:56;;;;;;;1.70;1.40;;;17.00;98.00;;;;;;5069612;28;20469;-71
2021/06/06 12:09:30;;;;;;;1.40;1.30;;;17.10;98.00;;;;;;5071730;28;20525;-71
2021/06/06 12:12:07;;;;;;;1.20;1.10;;;17.00;98.00;;;;;;5069360;28;20488;-70
2021/06/06 12:14:34;;;;;;;3.37;2.13;;;16.90;98.00;;;;;;5071620;28;20488;-71
2021/06/06 12:17:03;;;;;;;3.23;2.13;;;16.90;98.00;;;;;;5069079;28;20514;-70
2021/06/06 12:19:41;;;;;;;1.67;1.57;;;16.90;98.00;;;;;;5071311;28;20597;-70
2021/06/06 12:22:10;;;;;;;4.10;1.90;;;16.90;98.00;;;;;;5068712;28;20476;-70
2021/06/06 12:24:41;;;;;;;1.90;1.80;;;16.80;98.00;;;;;;5071533;28;20453;-69
2021/06/06 12:27:16;;;;;;;1.60;1.30;;;16.70;98.00;;;;;;5068739;28;20464;-73
2021/06/06 12:29:48;;;;;;;1.63;1.43;;;16.80;98.00;;;;;;5071622;28;20515;-72
2021/06/06 12:32:22;;;;;;;2.37;1.60;;;16.90;98.00;;;;;;5068550;28;20560;-72
2021/06/06 12:34:49;;;;;;;1.50;1.40;;;16.90;98.00;;;;;;5071350;28;20891;-73
2021/06/06 12:37:22;;;;;;;3.77;2.07;;;17.00;98.00;;;;;;5068730;28;20460;-72
2021/06/06 12:39:59;;;;;;;3.30;2.60;;;17.00;98.00;;;;;;5071228;28;20487;-72
2021/06/06 12:42:27;;;;;;;2.23;1.80;;;16.90;98.00;;;;;;5067066;28;20468;-72
2021/06/06 12:44:59;;;;;;;2.20;1.83;;;16.80;98.00;;;;;;5071258;28;20514;-71
2021/06/06 12:47:34;;;;;;;3.97;2.27;;;16.80;98.00;;;;;;5068457;28;20460;-72
2021/06/06 12:50:05;;;;;;;2.90;1.77;;;16.80;98.00;;;;;;5069989;28;20462;-70
2021/06/06 12:52:37;;;;;;;2.57;2.10;;;16.80;98.00;;;;;;5069376;28;20989;-71
2021/06/06 12:55:18;;;;;;;2.10;1.80;;;16.80;98.00;;;;;;5071232;28;21091;-73
2021/06/06 12:57:52;;;;;;;1.50;1.40;;;16.80;98.00;;;;;;5071039;28;20567;-73
2021/06/06 13:00:23;;;;;;;3.57;1.97;;;16.80;98.00;;;;;;5067633;28;20460;-73
2021/06/06 13:02:49;;;;;;;1.57;1.47;;;16.80;98.00;;;;;;5070860;28;20495;-73
2021/06/06 13:05:30;;;;;;;7.40;2.67;;;16.80;98.00;;;;;;5067116;28;20744;-72